sensor_id;sensor_type;location;lat;lon;timestamp;P1;durP1;ratioP1;P2;durP2;ratioP2
43319;SDS011;28914;48.722;9.332;2022-11-20T00:04:53;5.50;;;4.90;;
43319;SDS011;28914;48.722;9.332;2022-11-20T00:10:12;5.20;;;4.23;;
43319;SDS011;28914;48.722;9.332;2022-11-20T00:15:32;7.90;;;7.10;;
43319;SDS011;28914;48.722;9.332;2022-11-20T00:20:51;6.93;;;6.20;;
43319;SDS011;28914;48.722;9.332;2022-11-20T00:26:11;5.43;;;5.03;;
43319;SDS011;28914;48.722;9.332;2022-11-20T00:31:32;4.97;;;4.57;;
43319;SDS011;28914;48.722;9.332;2022-11-20T00:36:53;3.40;;;3.13;;
43319;SDS011;28914;48.722;9.332;2022-11-20T00:42:13;4.90;;;4.40;;
43319;SDS011;28914;48.722;9.332;2022-11-20T00:47:32;4.53;;;4.13;;
43319;SDS011;28914;48.722;9.332;2022-11-20T00:52:51;3.47;;;3.00;;
43319;SDS011;28914;48.722;9.332;2022-11-20T00:58:11;3.13;;;2.83;;
43319;SDS011;28914;48.722;9.332;2022-11-20T01:03:34;2.80;;;2.60;;
43319;SDS011;28914;48.722;9.332;2022-11-20T01:08:55;3.20;;;2.93;;
43319;SDS011;28914;48.722;9.332;2022-11-20T01:14:18;4.20;;;3.83;;
43319;SDS011;28914;48.722;9.332;2022-11-20T01:19:38;3.83;;;3.43;;
43319;SDS011;28914;48.722;9.332;2022-11-20T01:24:57;3.93;;;3.30;;
43319;SDS011;28914;48.722;9.332;2022-11-20T01:30:17;2.77;;;2.57;;
43319;SDS011;28914;48.722;9.332;2022-11-20T01:35:36;4.13;;;2.83;;
43319;SDS011;28914;48.722;9.332;2022-11-20T01:40:55;2.23;;;1.70;;
43319;SDS011;28914;48.722;9.332;2022-11-20T01:46:16;2.90;;;2.60;;
43319;SDS011;28914;48.722;9.332;2022-11-20T01:51:47;2.90;;;2.53;;
43319;SDS011;28914;48.722;9.332;2022-11-20T01:57:11;3.00;;;2.37;;
43319;SDS011;28914;48.722;9.332;2022-11-20T02:02:32;2.40;;;2.20;;
43319;SDS011;28914;48.722;9.332;2022-11-20T02:07:52;1.87;;;1.70;;
43319;SDS011;28914;48.722;9.332;2022-11-20T02:13:15;2.00;;;1.80;;
43319;SDS011;28914;48.722;9.332;2022-11-20T02:18:53;3.90;;;2.27;;
43319;SDS011;28914;48.722;9.332;2022-11-20T02:24:18;2.83;;;2.13;;
43319;SDS011;28914;48.722;9.332;2022-11-20T02:29:42;3.73;;;2.40;;
43319;SDS011;28914;48.722;9.332;2022-11-20T02:40:37;3.00;;;2.50;;
43319;SDS011;28914;48.722;9.332;2022-11-20T02:45:56;2.13;;;1.60;;
43319;SDS011;28914;48.722;9.332;2022-11-20T02:51:15;2.53;;;2.30;;
43319;SDS011;28914;48.722;9.332;2022-11-20T02:56:37;1.93;;;1.77;;
43319;SDS011;28914;48.722;9.332;2022-11-20T03:01:57;1.77;;;1.40;;
43319;SDS011;28914;48.722;9.332;2022-11-20T03:07:16;2.03;;;1.53;;
43319;SDS011;28914;48.722;9.332;2022-11-20T03:12:35;2.47;;;1.80;;
43319;SDS011;28914;48.722;9.332;2022-11-20T03:17:55;3.37;;;2.10;;
43319;SDS011;28914;48.722;9.332;2022-11-20T03:23:14;2.83;;;2.20;;
43319;SDS011;28914;48.722;9.332;2022-11-20T03:28:35;3.30;;;2.80;;
43319;SDS011;28914;48.722;9.332;2022-11-20T03:33:55;2.80;;;2.27;;
43319;SDS011;28914;48.722;9.332;2022-11-20T03:39:15;2.90;;;2.70;;
43319;SDS011;28914;48.722;9.332;2022-11-20T03:44:34;4.10;;;3.10;;
43319;SDS011;28914;48.722;9.332;2022-11-20T03:49:53;2.40;;;2.20;;
43319;SDS011;28914;48.722;9.332;2022-11-20T03:55:12;3.13;;;2.83;;
43319;SDS011;28914;48.722;9.332;2022-11-20T04:00:32;3.13;;;2.73;;
43319;SDS011;28914;48.722;9.332;2022-11-20T04:05:51;2.87;;;2.67;;
43319;SDS011;28914;48.722;9.332;2022-11-20T04:11:17;2.70;;;2.47;;
43319;SDS011;28914;48.722;9.332;2022-11-20T04:16:38;2.17;;;1.90;;
43319;SDS011;28914;48.722;9.332;2022-11-20T04:21:57;3.50;;;2.17;;
43319;SDS011;28914;48.722;9.332;2022-11-20T04:27:16;3.90;;;2.77;;
43319;SDS011;28914;48.722;9.332;2022-11-20T04:32:36;2.93;;;2.70;;
43319;SDS011;28914;48.722;9.332;2022-11-20T04:37:54;3.83;;;2.23;;
43319;SDS011;28914;48.722;9.332;2022-11-20T04:43:13;3.10;;;2.20;;
43319;SDS011;28914;48.722;9.332;2022-11-20T04:48:34;2.53;;;2.33;;
43319;SDS011;28914;48.722;9.332;2022-11-20T04:53:53;2.63;;;2.10;;
43319;SDS011;28914;48.722;9.332;2022-11-20T04:59:12;2.47;;;2.23;;
43319;SDS011;28914;48.722;9.332;2022-11-20T05:04:32;2.40;;;1.70;;
43319;SDS011;28914;48.722;9.332;2022-11-20T05:09:51;2.97;;;1.90;;
43319;SDS011;28914;48.722;9.332;2022-11-20T05:15:10;2.20;;;2.00;;
43319;SDS011;28914;48.722;9.332;2022-11-20T05:20:29;2.07;;;1.87;;
43319;SDS011;28914;48.722;9.332;2022-11-20T05:25:51;2.20;;;2.00;;
43319;SDS011;28914;48.722;9.332;2022-11-20T05:31:13;3.80;;;1.93;;
43319;SDS011;28914;48.722;9.332;2022-11-20T05:36:36;4.13;;;1.90;;
43319;SDS011;28914;48.722;9.332;2022-11-20T05:41:55;2.10;;;1.90;;
43319;SDS011;28914;48.722;9.332;2022-11-20T05:47:34;4.30;;;2.10;;
43319;SDS011;28914;48.722;9.332;2022-11-20T05:52:53;3.20;;;1.80;;
43319;SDS011;28914;48.722;9.332;2022-11-20T05:58:12;2.53;;;1.67;;
43319;SDS011;28914;48.722;9.332;2022-11-20T06:03:32;2.13;;;1.93;;
43319;SDS011;28914;48.722;9.332;2022-11-20T06:08:51;2.50;;;1.80;;
43319;SDS011;28914;48.722;9.332;2022-11-20T06:14:11;1.93;;;1.67;;
43319;SDS011;28914;48.722;9.332;2022-11-20T06:19:30;2.60;;;2.27;;
43319;SDS011;28914;48.722;9.332;2022-11-20T06:24:49;1.83;;;1.63;;
43319;SDS011;28914;48.722;9.332;2022-11-20T06:30:08;1.67;;;1.57;;
43319;SDS011;28914;48.722;9.332;2022-11-20T06:35:28;2.00;;;1.80;;
43319;SDS011;28914;48.722;9.332;2022-11-20T06:40:47;2.03;;;1.83;;
43319;SDS011;28914;48.722;9.332;2022-11-20T06:46:08;6.30;;;1.63;;
43319;SDS011;28914;48.722;9.332;2022-11-20T06:51:28;2.90;;;2.30;;
43319;SDS011;28914;48.722;9.332;2022-11-20T06:56:47;3.53;;;3.23;;
43319;SDS011;28914;48.722;9.332;2022-11-20T07:02:10;8.53;;;4.80;;
43319;SDS011;28914;48.722;9.332;2022-11-20T07:07:30;5.33;;;4.83;;
43319;SDS011;28914;48.722;9.332;2022-11-20T07:12:50;3.30;;;3.00;;
43319;SDS011;28914;48.722;9.332;2022-11-20T07:18:11;2.90;;;2.70;;
43319;SDS011;28914;48.722;9.332;2022-11-20T07:23:30;2.97;;;2.73;;
43319;SDS011;28914;48.722;9.332;2022-11-20T07:28:49;4.53;;;2.50;;
43319;SDS011;28914;48.722;9.332;2022-11-20T07:34:09;3.23;;;2.93;;
43319;SDS011;28914;48.722;9.332;2022-11-20T07:39:28;2.37;;;1.97;;
43319;SDS011;28914;48.722;9.332;2022-11-20T07:44:47;3.60;;;3.03;;
43319;SDS011;28914;48.722;9.332;2022-11-20T07:50:06;3.10;;;2.90;;
43319;SDS011;28914;48.722;9.332;2022-11-20T07:55:26;2.93;;;2.73;;
43319;SDS011;28914;48.722;9.332;2022-11-20T08:00:45;3.73;;;3.43;;
43319;SDS011;28914;48.722;9.332;2022-11-20T08:06:05;2.57;;;2.37;;
43319;SDS011;28914;48.722;9.332;2022-11-20T08:11:24;2.70;;;2.27;;
43319;SDS011;28914;48.722;9.332;2022-11-20T08:17:03;2.50;;;2.30;;
43319;SDS011;28914;48.722;9.332;2022-11-20T08:22:22;2.00;;;1.73;;
43319;SDS011;28914;48.722;9.332;2022-11-20T08:27:41;1.73;;;1.57;;
43319;SDS011;28914;48.722;9.332;2022-11-20T08:33:05;3.50;;;2.07;;
43319;SDS011;28914;48.722;9.332;2022-11-20T08:38:27;2.70;;;1.80;;
43319;SDS011;28914;48.722;9.332;2022-11-20T08:43:46;3.70;;;1.83;;
43319;SDS011;28914;48.722;9.332;2022-11-20T08:49:06;1.70;;;1.40;;
43319;SDS011;28914;48.722;9.332;2022-11-20T08:54:28;1.90;;;1.80;;
43319;SDS011;28914;48.722;9.332;2022-11-20T08:59:47;3.17;;;1.97;;
43319;SDS011;28914;48.722;9.332;2022-11-20T09:05:06;2.60;;;1.50;;
43319;SDS011;28914;48.722;9.332;2022-11-20T09:10:27;2.40;;;2.10;;
43319;SDS011;28914;48.722;9.332;2022-11-20T09:15:46;5.10;;;3.73;;
43319;SDS011;28914;48.722;9.332;2022-11-20T09:21:06;2.63;;;1.87;;
43319;SDS011;28914;48.722;9.332;2022-11-20T09:26:31;2.20;;;1.70;;
43319;SDS011;28914;48.722;9.332;2022-11-20T09:31:51;2.87;;;1.90;;
43319;SDS011;28914;48.722;9.332;2022-11-20T09:37:10;2.57;;;1.73;;
43319;SDS011;28914;48.722;9.332;2022-11-20T09:54:06;1.30;;;1.10;;
43319;SDS011;28914;48.722;9.332;2022-11-20T09:59:42;2.23;;;2.03;;
43319;SDS011;28914;48.722;9.332;2022-11-20T10:05:21;1.47;;;1.23;;
43319;SDS011;28914;48.722;9.332;2022-11-20T10:16:50;1.60;;;1.30;;
43319;SDS011;28914;48.722;9.332;2022-11-20T10:33:52;1.40;;;0.90;;
43319;SDS011;28914;48.722;9.332;2022-11-20T10:39:24;1.60;;;0.90;;
43319;SDS011;28914;48.722;9.332;2022-11-20T10:44:58;1.40;;;1.30;;
43319;SDS011;28914;48.722;9.332;2022-11-20T10:50:29;2.07;;;1.37;;
43319;SDS011;28914;48.722;9.332;2022-11-20T10:55:50;1.20;;;0.87;;
43319;SDS011;28914;48.722;9.332;2022-11-20T11:01:17;1.60;;;1.03;;
43319;SDS011;28914;48.722;9.332;2022-11-20T11:06:42;1.00;;;0.80;;
43319;SDS011;28914;48.722;9.332;2022-11-20T11:12:06;1.33;;;0.70;;
43319;SDS011;28914;48.722;9.332;2022-11-20T11:33:36;1.87;;;1.20;;
43319;SDS011;28914;48.722;9.332;2022-11-20T11:38:55;1.20;;;1.10;;
43319;SDS011;28914;48.722;9.332;2022-11-20T11:44:15;1.30;;;1.20;;
43319;SDS011;28914;48.722;9.332;2022-11-20T12:07:15;1.43;;;1.10;;
43319;SDS011;28914;48.722;9.332;2022-11-20T12:12:39;1.40;;;1.27;;
43319;SDS011;28914;48.722;9.332;2022-11-20T12:18:04;2.03;;;1.70;;
43319;SDS011;28914;48.722;9.332;2022-11-20T12:23:35;1.93;;;1.37;;
43319;SDS011;28914;48.722;9.332;2022-11-20T12:29:23;1.30;;;1.20;;
43319;SDS011;28914;48.722;9.332;2022-11-20T12:40:32;1.80;;;1.30;;
43319;SDS011;28914;48.722;9.332;2022-11-20T12:46:08;2.00;;;1.10;;
43319;SDS011;28914;48.722;9.332;2022-11-20T13:08:53;1.80;;;0.97;;
43319;SDS011;28914;48.722;9.332;2022-11-20T13:14:31;1.33;;;1.03;;
43319;SDS011;28914;48.722;9.332;2022-11-20T13:19:56;1.60;;;1.10;;
43319;SDS011;28914;48.722;9.332;2022-11-20T13:30:49;2.30;;;1.07;;
43319;SDS011;28914;48.722;9.332;2022-11-20T13:36:23;1.90;;;1.20;;
43319;SDS011;28914;48.722;9.332;2022-11-20T13:41:53;1.87;;;1.17;;
43319;SDS011;28914;48.722;9.332;2022-11-20T13:47:20;1.20;;;0.80;;
43319;SDS011;28914;48.722;9.332;2022-11-20T13:58:29;3.33;;;1.53;;
43319;SDS011;28914;48.722;9.332;2022-11-20T14:03:52;1.27;;;1.00;;
43319;SDS011;28914;48.722;9.332;2022-11-20T14:09:13;1.70;;;1.10;;
43319;SDS011;28914;48.722;9.332;2022-11-20T14:14:51;1.50;;;1.07;;
43319;SDS011;28914;48.722;9.332;2022-11-20T14:20:12;1.40;;;0.90;;
43319;SDS011;28914;48.722;9.332;2022-11-20T14:25:34;1.53;;;0.90;;
43319;SDS011;28914;48.722;9.332;2022-11-20T14:30:53;3.93;;;1.47;;
43319;SDS011;28914;48.722;9.332;2022-11-20T14:36:17;2.03;;;1.30;;
43319;SDS011;28914;48.722;9.332;2022-11-20T14:41:49;1.53;;;1.17;;
43319;SDS011;28914;48.722;9.332;2022-11-20T14:47:10;2.33;;;0.90;;
43319;SDS011;28914;48.722;9.332;2022-11-20T14:52:31;2.87;;;1.07;;
43319;SDS011;28914;48.722;9.332;2022-11-20T14:57:54;1.50;;;1.00;;
43319;SDS011;28914;48.722;9.332;2022-11-20T15:03:15;2.10;;;1.73;;
43319;SDS011;28914;48.722;9.332;2022-11-20T15:08:35;4.80;;;1.50;;
43319;SDS011;28914;48.722;9.332;2022-11-20T15:13:54;2.80;;;2.00;;
43319;SDS011;28914;48.722;9.332;2022-11-20T15:19:17;4.90;;;3.80;;
43319;SDS011;28914;48.722;9.332;2022-11-20T15:24:38;2.43;;;2.20;;
43319;SDS011;28914;48.722;9.332;2022-11-20T15:29:57;2.73;;;2.30;;
43319;SDS011;28914;48.722;9.332;2022-11-20T15:35:16;2.30;;;1.60;;
43319;SDS011;28914;48.722;9.332;2022-11-20T15:40:36;2.30;;;1.43;;
43319;SDS011;28914;48.722;9.332;2022-11-20T15:45:56;2.60;;;1.10;;
43319;SDS011;28914;48.722;9.332;2022-11-20T15:51:26;2.90;;;1.80;;
43319;SDS011;28914;48.722;9.332;2022-11-20T15:57:06;2.83;;;1.80;;
43319;SDS011;28914;48.722;9.332;2022-11-20T16:02:25;2.30;;;2.10;;
43319;SDS011;28914;48.722;9.332;2022-11-20T16:07:45;2.30;;;1.80;;
43319;SDS011;28914;48.722;9.332;2022-11-20T16:13:04;2.57;;;1.83;;
43319;SDS011;28914;48.722;9.332;2022-11-20T16:18:49;2.60;;;2.07;;
43319;SDS011;28914;48.722;9.332;2022-11-20T16:24:09;7.80;;;7.00;;
43319;SDS011;28914;48.722;9.332;2022-11-20T16:29:31;16.90;;;15.50;;
43319;SDS011;28914;48.722;9.332;2022-11-20T16:34:50;14.60;;;13.20;;
43319;SDS011;28914;48.722;9.332;2022-11-20T16:40:10;17.47;;;15.83;;
43319;SDS011;28914;48.722;9.332;2022-11-20T16:45:29;16.73;;;15.07;;
43319;SDS011;28914;48.722;9.332;2022-11-20T16:50:49;11.20;;;9.97;;
43319;SDS011;28914;48.722;9.332;2022-11-20T16:56:10;8.53;;;7.73;;
43319;SDS011;28914;48.722;9.332;2022-11-20T17:01:31;8.70;;;7.83;;
43319;SDS011;28914;48.722;9.332;2022-11-20T17:06:50;9.30;;;8.40;;
43319;SDS011;28914;48.722;9.332;2022-11-20T17:12:09;10.30;;;9.23;;
43319;SDS011;28914;48.722;9.332;2022-11-20T17:17:28;9.87;;;8.87;;
43319;SDS011;28914;48.722;9.332;2022-11-20T17:22:47;10.00;;;9.00;;
43319;SDS011;28914;48.722;9.332;2022-11-20T17:28:07;8.07;;;7.37;;
43319;SDS011;28914;48.722;9.332;2022-11-20T17:33:26;12.00;;;10.90;;
43319;SDS011;28914;48.722;9.332;2022-11-20T17:38:46;11.80;;;10.83;;
43319;SDS011;28914;48.722;9.332;2022-11-20T17:44:08;7.97;;;7.23;;
43319;SDS011;28914;48.722;9.332;2022-11-20T17:49:28;8.80;;;8.00;;
43319;SDS011;28914;48.722;9.332;2022-11-20T17:54:47;7.03;;;6.43;;
43319;SDS011;28914;48.722;9.332;2022-11-20T18:00:06;11.90;;;8.90;;
43319;SDS011;28914;48.722;9.332;2022-11-20T18:05:27;9.47;;;7.83;;
43319;SDS011;28914;48.722;9.332;2022-11-20T18:10:47;6.87;;;6.23;;
43319;SDS011;28914;48.722;9.332;2022-11-20T18:16:06;5.33;;;4.83;;
43319;SDS011;28914;48.722;9.332;2022-11-20T18:21:26;4.80;;;3.47;;
43319;SDS011;28914;48.722;9.332;2022-11-20T18:26:46;4.80;;;3.70;;
43319;SDS011;28914;48.722;9.332;2022-11-20T18:32:06;5.93;;;4.20;;
43319;SDS011;28914;48.722;9.332;2022-11-20T18:37:25;4.67;;;4.23;;
43319;SDS011;28914;48.722;9.332;2022-11-20T18:42:44;5.83;;;5.07;;
43319;SDS011;28914;48.722;9.332;2022-11-20T18:48:22;5.83;;;5.23;;
43319;SDS011;28914;48.722;9.332;2022-11-20T18:53:41;9.17;;;8.27;;
43319;SDS011;28914;48.722;9.332;2022-11-20T18:59:01;9.13;;;8.23;;
43319;SDS011;28914;48.722;9.332;2022-11-20T19:04:22;11.37;;;10.27;;
43319;SDS011;28914;48.722;9.332;2022-11-20T19:09:41;10.27;;;9.17;;
43319;SDS011;28914;48.722;9.332;2022-11-20T19:15:03;5.17;;;4.67;;
43319;SDS011;28914;48.722;9.332;2022-11-20T19:20:22;3.23;;;2.03;;
43319;SDS011;28914;48.722;9.332;2022-11-20T19:25:42;2.30;;;1.50;;
43319;SDS011;28914;48.722;9.332;2022-11-20T19:31:05;2.70;;;1.63;;
43319;SDS011;28914;48.722;9.332;2022-11-20T19:36:27;3.53;;;3.23;;
43319;SDS011;28914;48.722;9.332;2022-11-20T19:41:53;3.93;;;3.53;;
43319;SDS011;28914;48.722;9.332;2022-11-20T19:47:12;4.30;;;3.80;;
43319;SDS011;28914;48.722;9.332;2022-11-20T19:52:32;2.20;;;1.80;;
43319;SDS011;28914;48.722;9.332;2022-11-20T19:57:51;2.07;;;1.50;;
43319;SDS011;28914;48.722;9.332;2022-11-20T20:03:10;4.50;;;2.97;;
43319;SDS011;28914;48.722;9.332;2022-11-20T20:08:30;2.23;;;1.30;;
43319;SDS011;28914;48.722;9.332;2022-11-20T20:13:49;3.70;;;1.53;;
43319;SDS011;28914;48.722;9.332;2022-11-20T20:19:10;2.37;;;1.77;;
43319;SDS011;28914;48.722;9.332;2022-11-20T20:24:30;1.73;;;1.47;;
43319;SDS011;28914;48.722;9.332;2022-11-20T20:29:49;1.57;;;0.80;;
43319;SDS011;28914;48.722;9.332;2022-11-20T20:35:09;1.30;;;0.80;;
43319;SDS011;28914;48.722;9.332;2022-11-20T20:40:28;1.83;;;0.80;;
43319;SDS011;28914;48.722;9.332;2022-11-20T20:45:48;1.83;;;0.83;;
43319;SDS011;28914;48.722;9.332;2022-11-20T20:51:08;1.40;;;0.90;;
43319;SDS011;28914;48.722;9.332;2022-11-20T20:56:27;2.20;;;1.37;;
43319;SDS011;28914;48.722;9.332;2022-11-20T21:01:46;1.47;;;0.80;;
43319;SDS011;28914;48.722;9.332;2022-11-20T21:07:05;2.60;;;0.97;;
43319;SDS011;28914;48.722;9.332;2022-11-20T21:12:24;2.40;;;1.07;;
43319;SDS011;28914;48.722;9.332;2022-11-20T21:17:44;2.17;;;1.30;;
43319;SDS011;28914;48.722;9.332;2022-11-20T21:23:06;2.50;;;1.53;;
43319;SDS011;28914;48.722;9.332;2022-11-20T21:28:26;1.93;;;1.10;;
43319;SDS011;28914;48.722;9.332;2022-11-20T21:33:46;1.70;;;0.80;;
43319;SDS011;28914;48.722;9.332;2022-11-20T21:39:08;2.40;;;2.13;;
43319;SDS011;28914;48.722;9.332;2022-11-20T21:44:28;1.47;;;1.10;;
43319;SDS011;28914;48.722;9.332;2022-11-20T21:49:47;1.00;;;0.80;;
43319;SDS011;28914;48.722;9.332;2022-11-20T21:55:07;1.33;;;0.70;;
43319;SDS011;28914;48.722;9.332;2022-11-20T22:00:26;3.13;;;2.30;;
43319;SDS011;28914;48.722;9.332;2022-11-20T22:05:52;1.40;;;0.60;;
43319;SDS011;28914;48.722;9.332;2022-11-20T22:11:16;1.17;;;0.77;;
43319;SDS011;28914;48.722;9.332;2022-11-20T22:16:37;1.23;;;0.70;;
43319;SDS011;28914;48.722;9.332;2022-11-20T22:21:56;1.13;;;0.83;;
43319;SDS011;28914;48.722;9.332;2022-11-20T22:27:15;1.30;;;0.80;;
43319;SDS011;28914;48.722;9.332;2022-11-20T22:32:34;1.40;;;0.90;;
43319;SDS011;28914;48.722;9.332;2022-11-20T22:37:53;1.80;;;0.70;;
43319;SDS011;28914;48.722;9.332;2022-11-20T22:43:13;1.50;;;0.80;;
43319;SDS011;28914;48.722;9.332;2022-11-20T22:48:32;1.53;;;0.90;;
43319;SDS011;28914;48.722;9.332;2022-11-20T22:53:52;0.93;;;0.63;;
43319;SDS011;28914;48.722;9.332;2022-11-20T22:59:12;1.30;;;0.70;;
43319;SDS011;28914;48.722;9.332;2022-11-20T23:04:31;1.10;;;0.70;;
43319;SDS011;28914;48.722;9.332;2022-11-20T23:09:50;0.93;;;0.60;;
43319;SDS011;28914;48.722;9.332;2022-11-20T23:15:09;1.17;;;0.70;;
43319;SDS011;28914;48.722;9.332;2022-11-20T23:20:28;1.00;;;0.70;;
43319;SDS011;28914;48.722;9.332;2022-11-20T23:25:48;1.10;;;0.70;;
43319;SDS011;28914;48.722;9.332;2022-11-20T23:31:07;1.00;;;0.60;;
43319;SDS011;28914;48.722;9.332;2022-11-20T23:36:28;0.90;;;0.50;;
43319;SDS011;28914;48.722;9.332;2022-11-20T23:41:47;0.80;;;0.50;;
43319;SDS011;28914;48.722;9.332;2022-11-20T23:47:06;1.17;;;0.57;;
43319;SDS011;28914;48.722;9.332;2022-11-20T23:52:25;1.10;;;0.60;;
43319;SDS011;28914;48.722;9.332;2022-11-20T23:57:44;1.10;;;0.70;;
